Time;durP1;ratioP1;P1;durP2;ratioP2;P2;SDS_P1;SDS_P2;PMS_P1;PMS_P2;Temp;Humidity;BMP_temperature;BMP_pressure;BME280_temperature;BME280_humidity;BME280_pressure;Samples;Min_cycle;Max_cycle;Signal;HPM_P1;HPM_P2
2021/06/22 00:00:19;;;;;;;7.93;3.75;;;12.60;96.50;;;;;;5070668;28;20060;-84
2021/06/22 00:02:45;;;;;;;13.30;4.60;;;12.60;96.50;;;;;;5071834;28;20415;-84
2021/06/22 00:05:11;;;;;;;10.18;4.47;;;12.60;96.60;;;;;;5063571;28;20025;-84
2021/06/22 00:07:37;;;;;;;10.98;3.67;;;12.60;96.70;;;;;;5058250;28;20020;-84
2021/06/22 00:10:04;;;;;;;8.27;4.00;;;12.50;96.70;;;;;;5060816;28;20029;-84
2021/06/22 00:12:30;;;;;;;13.25;5.00;;;12.50;96.80;;;;;;5065572;28;20032;-84
2021/06/22 00:14:55;;;;;;;12.05;4.63;;;12.50;96.80;;;;;;5056714;28;20022;-84
2021/06/22 00:17:21;;;;;;;12.50;4.05;;;12.50;96.80;;;;;;5068825;28;20029;-84
2021/06/22 00:19:46;;;;;;;9.65;3.85;;;12.50;96.90;;;;;;5071028;28;20027;-84
2021/06/22 00:22:12;;;;;;;12.95;4.85;;;12.40;96.90;;;;;;5071003;28;20034;-84
2021/06/22 00:24:38;;;;;;;11.95;4.13;;;12.40;97.00;;;;;;5059091;28;20459;-84
2021/06/22 00:27:03;;;;;;;10.05;5.10;;;12.40;97.00;;;;;;5068412;28;20032;-84
2021/06/22 00:29:29;;;;;;;9.68;4.45;;;12.30;97.00;;;;;;5063067;28;20564;-84
2021/06/22 00:31:55;;;;;;;9.90;4.63;;;12.20;97.10;;;;;;5067103;28;20029;-84
2021/06/22 00:34:20;;;;;;;12.25;4.72;;;12.20;97.10;;;;;;5066211;28;20027;-84
2021/06/22 00:36:46;;;;;;;8.93;4.60;;;12.20;97.30;;;;;;5059108;28;20043;-84
2021/06/22 00:39:11;;;;;;;10.60;4.95;;;12.10;97.30;;;;;;5071375;28;20107;-84
2021/06/22 00:41:37;;;;;;;11.80;5.18;;;12.10;97.40;;;;;;5074203;28;20069;-84
2021/06/22 00:44:08;;;;;;;11.57;6.05;;;12.00;97.40;;;;;;5075102;28;20112;-84
2021/06/22 00:46:36;;;;;;;17.35;6.45;;;12.00;97.50;;;;;;5075839;28;20030;-84
2021/06/22 00:49:02;;;;;;;13.90;5.15;;;12.00;97.50;;;;;;5060251;28;20132;-85
2021/06/22 00:51:28;;;;;;;14.98;5.55;;;12.00;97.60;;;;;;5073937;28;20127;-84
2021/06/22 00:53:55;;;;;;;12.90;5.82;;;11.90;97.70;;;;;;5074542;28;20451;-85
2021/06/22 00:56:23;;;;;;;11.50;5.20;;;11.90;97.70;;;;;;5070312;28;20032;-85
2021/06/22 00:58:48;;;;;;;11.57;5.32;;;11.90;97.80;;;;;;5068592;28;20032;-85
2021/06/22 01:01:14;;;;;;;12.93;5.32;;;11.90;97.90;;;;;;5073372;28;20079;-85
2021/06/22 01:03:39;;;;;;;9.02;4.78;;;11.90;97.90;;;;;;5071581;28;20105;-84
2021/06/22 01:06:06;;;;;;;14.55;5.40;;;11.80;97.90;;;;;;5067408;28;20032;-84
2021/06/22 01:08:33;;;;;;;11.35;5.60;;;11.80;98.00;;;;;;5064782;28;20037;-84
2021/06/22 01:10:58;;;;;;;18.25;5.80;;;11.80;98.10;;;;;;5069649;28;20067;-84
2021/06/22 01:13:24;;;;;;;13.25;6.00;;;11.80;98.20;;;;;;5069833;28;20493;-84
2021/06/22 01:15:50;;;;;;;13.18;5.80;;;11.80;98.20;;;;;;5071377;28;20205;-84
2021/06/22 01:18:17;;;;;;;15.98;5.82;;;11.80;98.20;;;;;;5067941;28;20088;-85
2021/06/22 01:20:43;;;;;;;12.18;6.22;;;11.80;98.20;;;;;;5072179;28;20432;-85
2021/06/22 01:23:09;;;;;;;11.60;5.90;;;11.80;98.30;;;;;;5072395;28;20060;-84
2021/06/22 01:25:36;;;;;;;15.27;6.15;;;11.70;98.30;;;;;;5064512;28;20066;-84
2021/06/22 01:28:02;;;;;;;12.98;6.38;;;11.70;98.40;;;;;;5072661;28;20031;-84
2021/06/22 01:30:29;;;;;;;17.70;6.60;;;11.70;98.40;;;;;;5062050;28;20024;-84
2021/06/22 01:32:56;;;;;;;12.02;6.20;;;11.70;98.40;;;;;;5073024;28;20444;-84
2021/06/22 01:35:21;;;;;;;16.50;6.15;;;11.70;98.40;;;;;;5071300;28;20480;-84
2021/06/22 01:37:59;;;;;;;13.15;5.93;;;11.60;98.40;;;;;;5062738;28;20039;-84
2021/06/22 01:40:25;;;;;;;12.90;6.63;;;11.70;98.50;;;;;;5059796;28;20109;-84
2021/06/22 01:42:51;;;;;;;12.80;6.05;;;11.70;98.50;;;;;;5072369;28;20468;-85
2021/06/22 01:45:17;;;;;;;16.33;5.72;;;11.60;98.50;;;;;;5067422;28;20065;-84
2021/06/22 01:47:44;;;;;;;11.57;5.53;;;11.60;98.50;;;;;;5070821;28;20890;-85
2021/06/22 01:50:11;;;;;;;11.70;6.28;;;11.60;98.60;;;;;;5072489;28;20409;-85
2021/06/22 01:52:36;;;;;;;14.70;6.25;;;11.60;98.60;;;;;;5077292;28;20021;-85
2021/06/22 01:57:49;;;;;;;11.13;6.97;;;11.60;98.70;;;;;;5074037;28;20093;-85
2021/06/22 02:00:16;;;;;;;9.18;5.90;;;11.60;98.70;;;;;;5068085;28;20059;-85
2021/06/22 02:02:41;;;;;;;13.88;6.80;;;11.60;98.70;;;;;;5069117;28;20065;-85
2021/06/22 02:05:07;;;;;;;12.10;5.88;;;11.60;98.70;;;;;;5059321;28;20064;-85
2021/06/22 02:07:32;;;;;;;10.82;7.43;;;11.60;98.70;;;;;;5070864;28;20170;-84
2021/06/22 02:09:58;;;;;;;15.27;6.13;;;11.60;98.70;;;;;;5073314;28;20036;-85
2021/06/22 02:12:23;;;;;;;12.80;6.55;;;11.60;98.70;;;;;;5066901;28;20028;-85
2021/06/22 02:14:49;;;;;;;15.13;6.75;;;11.60;98.80;;;;;;5072133;28;20480;-84
2021/06/22 02:17:14;;;;;;;10.15;6.07;;;11.50;98.80;;;;;;5072142;28;20039;-85
2021/06/22 02:19:40;;;;;;;13.88;6.10;;;11.50;98.80;;;;;;5072894;28;20021;-85
2021/06/22 02:22:06;;;;;;;11.43;5.65;;;11.50;98.90;;;;;;5072371;28;20098;-84
2021/06/22 02:24:31;;;;;;;15.25;6.68;;;11.50;98.90;;;;;;5072237;28;20020;-85
2021/06/22 02:26:57;;;;;;;9.68;6.47;;;11.40;99.00;;;;;;5073892;28;20035;-85
2021/06/22 02:29:22;;;;;;;14.85;6.80;;;11.40;99.00;;;;;;5067442;28;20520;-84
2021/06/22 02:31:48;;;;;;;14.50;7.53;;;11.40;99.10;;;;;;5067797;28;20028;-84
2021/06/22 02:34:13;;;;;;;16.38;6.72;;;11.40;99.10;;;;;;5067037;28;20012;-84
2021/06/22 02:36:39;;;;;;;11.00;6.60;;;11.40;99.10;;;;;;5067867;28;20428;-85
2021/06/22 02:39:04;;;;;;;12.32;6.85;;;11.40;99.10;;;;;;5058146;28;20029;-84
2021/06/22 02:41:30;;;;;;;16.38;6.35;;;11.40;99.10;;;;;;5060456;28;20108;-84
2021/06/22 02:43:56;;;;;;;16.20;6.93;;;11.30;99.10;;;;;;5065722;28;20111;-85
2021/06/22 02:46:21;;;;;;;17.00;6.80;;;11.30;99.20;;;;;;5065356;28;20020;-84
2021/06/22 02:48:47;;;;;;;13.98;7.13;;;11.30;99.20;;;;;;5070227;28;20076;-84
2021/06/22 02:51:12;;;;;;;14.45;6.55;;;11.30;99.30;;;;;;5069113;28;20069;-84
2021/06/22 02:53:38;;;;;;;16.55;6.65;;;11.30;99.30;;;;;;5069527;28;20033;-84
2021/06/22 02:56:04;;;;;;;16.65;7.78;;;11.30;99.30;;;;;;5060820;28;20024;-84
2021/06/22 02:58:29;;;;;;;15.38;6.90;;;11.20;99.30;;;;;;5069767;28;20067;-84
2021/06/22 03:00:55;;;;;;;17.48;7.82;;;11.20;99.30;;;;;;5065605;28;20021;-84
2021/06/22 03:03:20;;;;;;;16.52;7.47;;;11.20;99.30;;;;;;5068569;28;20028;-84
2021/06/22 03:05:46;;;;;;;15.93;7.38;;;11.20;99.40;;;;;;5066597;28;20025;-83
2021/06/22 03:08:11;;;;;;;11.95;6.65;;;11.20;99.40;;;;;;5066697;28;20107;-83
2021/06/22 03:10:37;;;;;;;19.35;5.85;;;11.20;99.40;;;;;;5067012;28;20027;-84
2021/06/22 03:13:03;;;;;;;16.63;7.63;;;11.20;99.40;;;;;;5065962;28;20044;-85
2021/06/22 03:15:28;;;;;;;17.58;7.10;;;11.20;99.40;;;;;;5068950;28;20048;-85
2021/06/22 03:17:54;;;;;;;14.38;6.88;;;11.20;99.40;;;;;;5072480;28;20066;-84
2021/06/22 03:20:20;;;;;;;13.88;6.60;;;11.30;99.40;;;;;;5072539;28;20122;-85
2021/06/22 03:22:46;;;;;;;15.27;7.28;;;11.30;99.40;;;;;;5071306;28;20031;-84
2021/06/22 03:25:12;;;;;;;12.88;6.07;;;11.30;99.40;;;;;;5071062;28;20035;-84
2021/06/22 03:27:39;;;;;;;16.08;7.05;;;11.30;99.40;;;;;;5072244;28;20025;-84
2021/06/22 03:30:07;;;;;;;15.50;6.90;;;11.20;99.40;;;;;;5071814;28;20024;-84
2021/06/22 03:32:32;;;;;;;15.02;7.65;;;11.20;99.40;;;;;;5063365;28;20550;-84
2021/06/22 03:34:58;;;;;;;12.98;7.45;;;11.20;99.40;;;;;;5071034;28;20025;-84
2021/06/22 03:37:24;;;;;;;11.45;6.30;;;11.20;99.40;;;;;;5069755;28;20086;-84
2021/06/22 03:39:49;;;;;;;17.27;7.03;;;11.20;99.50;;;;;;5069220;28;20521;-84
2021/06/22 03:42:15;;;;;;;11.82;7.35;;;11.30;99.50;;;;;;5071617;28;20400;-84
2021/06/22 03:44:41;;;;;;;13.20;7.03;;;11.20;99.50;;;;;;5068799;28;20155;-85
2021/06/22 03:47:06;;;;;;;15.40;6.82;;;11.30;99.50;;;;;;5066963;28;20025;-84
2021/06/22 03:49:32;;;;;;;11.43;5.85;;;11.30;99.50;;;;;;5072005;28;20098;-84
2021/06/22 03:51:58;;;;;;;11.73;7.32;;;11.30;99.50;;;;;;5071601;28;20013;-84
2021/06/22 03:54:24;;;;;;;14.07;7.10;;;11.30;99.50;;;;;;5071222;28;20031;-84
2021/06/22 03:56:50;;;;;;;15.13;7.35;;;11.40;99.50;;;;;;5070824;28;20028;-84
2021/06/22 03:59:15;;;;;;;15.73;7.60;;;11.40;99.50;;;;;;5071043;28;20021;-84
2021/06/22 04:01:41;;;;;;;16.35;7.22;;;11.40;99.50;;;;;;5067093;28;20107;-84
2021/06/22 04:04:06;;;;;;;11.27;6.68;;;11.40;99.50;;;;;;5064160;28;20124;-84
2021/06/22 04:06:32;;;;;;;11.05;6.60;;;11.40;99.50;;;;;;5060843;28;20024;-84
2021/06/22 04:08:57;;;;;;;10.60;5.85;;;11.50;99.50;;;;;;5068333;28;20029;-84
2021/06/22 04:11:23;;;;;;;13.70;7.18;;;11.50;99.50;;;;;;5069234;28;20025;-84
2021/06/22 04:13:49;;;;;;;14.57;6.53;;;11.50;99.60;;;;;;5076015;22;20084;-85
2021/06/22 04:16:14;;;;;;;17.67;6.60;;;11.60;99.60;;;;;;5076965;28;20068;-84
2021/06/22 04:18:40;;;;;;;14.93;6.97;;;11.70;99.60;;;;;;5076051;28;20032;-84
2021/06/22 04:21:06;;;;;;;13.75;6.97;;;11.70;99.60;;;;;;5076654;28;20052;-85
2021/06/22 04:23:31;;;;;;;10.43;5.78;;;11.80;99.50;;;;;;5073343;28;20362;-84
2021/06/22 04:25:57;;;;;;;15.05;5.50;;;11.90;99.50;;;;;;5058395;28;20133;-84
2021/06/22 04:28:22;;;;;;;10.02;5.00;;;11.90;99.50;;;;;;5076835;28;20055;-84
2021/06/22 04:30:48;;;;;;;13.13;5.18;;;12.00;99.40;;;;;;5075337;28;20032;-84
2021/06/22 04:33:14;;;;;;;12.30;4.45;;;12.10;99.30;;;;;;5058505;28;20512;-84
2021/06/22 04:35:40;;;;;;;14.13;5.40;;;12.10;99.20;;;;;;5057505;28;20059;-84
2021/06/22 04:38:07;;;;;;;13.60;4.93;;;12.20;99.10;;;;;;5039385;28;20041;-85
2021/06/22 04:40:35;;;;;;;7.97;4.22;;;12.20;98.90;;;;;;5068366;28;20020;-84
2021/06/22 04:43:02;;;;;;;9.60;4.53;;;12.30;98.90;;;;;;5075976;28;20060;-85
2021/06/22 04:45:29;;;;;;;9.63;4.05;;;12.30;98.80;;;;;;5057066;28;20028;-85
2021/06/22 04:47:55;;;;;;;13.27;5.05;;;12.30;98.70;;;;;;5059441;28;20120;-85
2021/06/22 04:50:21;;;;;;;18.00;4.95;;;12.40;98.70;;;;;;5056001;28;20515;-84
2021/06/22 04:52:47;;;;;;;13.93;5.82;;;12.50;98.60;;;;;;5052255;28;20557;-84
2021/06/22 04:55:15;;;;;;;13.23;5.65;;;12.50;98.40;;;;;;5063668;28;20116;-84
2021/06/22 04:57:44;;;;;;;10.05;6.15;;;12.50;98.20;;;;;;5074985;28;20048;-84
2021/06/22 05:00:10;;;;;;;13.50;6.45;;;12.60;98.10;;;;;;5046312;28;20029;-85
2021/06/22 05:02:36;;;;;;;13.98;6.63;;;12.60;98.00;;;;;;5059098;28;20029;-85
2021/06/22 05:05:03;;;;;;;15.13;7.18;;;12.60;97.90;;;;;;5057175;28;20031;-84
2021/06/22 05:07:29;;;;;;;13.93;7.03;;;12.60;97.80;;;;;;5065584;28;20036;-84
2021/06/22 05:09:54;;;;;;;15.40;7.35;;;12.60;97.70;;;;;;5063428;28;20067;-85
2021/06/22 05:12:20;;;;;;;9.48;6.88;;;12.60;97.70;;;;;;5084630;28;20069;-84
2021/06/22 05:14:47;;;;;;;16.80;7.75;;;12.60;97.60;;;;;;5061180;28;20098;-84
2021/06/22 05:17:12;;;;;;;15.65;8.13;;;12.60;97.50;;;;;;5068342;28;20115;-84
2021/06/22 05:19:38;;;;;;;18.35;9.63;;;12.60;97.30;;;;;;5067995;28;20048;-85
2021/06/22 05:22:03;;;;;;;18.60;7.80;;;12.70;97.40;;;;;;5058060;28;20044;-84
2021/06/22 05:24:29;;;;;;;17.83;8.52;;;12.70;97.30;;;;;;5079354;28;20032;-84
2021/06/22 05:26:54;;;;;;;14.50;7.93;;;12.70;97.20;;;;;;5061315;28;20122;-84
2021/06/22 05:29:20;;;;;;;15.60;8.05;;;12.80;97.20;;;;;;5056734;28;20123;-85
2021/06/22 05:31:45;;;;;;;20.85;9.75;;;12.90;97.10;;;;;;5081449;28;20024;-84
2021/06/22 05:34:11;;;;;;;17.52;10.13;;;13.00;97.10;;;;;;5058243;28;20021;-84
2021/06/22 05:36:36;;;;;;;19.00;10.00;;;13.00;96.90;;;;;;5054348;28;20025;-84
2021/06/22 05:39:02;;;;;;;18.85;9.57;;;13.10;96.80;;;;;;5059249;28;20392;-84
2021/06/22 05:41:28;;;;;;;15.52;9.73;;;13.20;96.70;;;;;;5061546;28;20075;-84
2021/06/22 05:43:53;;;;;;;17.77;9.45;;;13.40;96.50;;;;;;5062160;28;20428;-84
2021/06/22 05:46:19;;;;;;;24.20;9.73;;;13.40;96.20;;;;;;5049769;28;20031;-84
2021/06/22 05:48:44;;;;;;;18.50;9.88;;;13.60;96.00;;;;;;5070209;28;20024;-84
2021/06/22 05:51:10;;;;;;;17.48;9.95;;;13.70;95.50;;;;;;5066090;28;20100;-84
2021/06/22 05:53:35;;;;;;;18.35;8.93;;;13.80;95.30;;;;;;5060716;28;20024;-85
2021/06/22 05:56:01;;;;;;;17.15;9.27;;;13.90;95.10;;;;;;5072917;28;20028;-84
2021/06/22 05:58:26;;;;;;;18.00;10.48;;;14.00;94.80;;;;;;5046341;28;20504;-85
2021/06/22 06:00:52;;;;;;;17.90;9.68;;;14.10;94.50;;;;;;5073942;28;20532;-84
2021/06/22 06:03:17;;;;;;;14.10;9.75;;;14.30;94.10;;;;;;5090463;28;20028;-84
2021/06/22 06:05:43;;;;;;;18.02;9.57;;;14.40;94.10;;;;;;5059989;28;20031;-84
2021/06/22 06:08:08;;;;;;;19.38;9.80;;;14.50;93.60;;;;;;5074769;28;20194;-84
2021/06/22 06:10:34;;;;;;;18.23;9.95;;;14.60;93.50;;;;;;5044599;28;20485;-84
2021/06/22 06:12:59;;;;;;;13.05;8.52;;;14.60;93.30;;;;;;5085899;28;20153;-84
2021/06/22 06:15:25;;;;;;;16.77;9.23;;;14.70;93.20;;;;;;5063502;28;20505;-84
2021/06/22 06:17:50;;;;;;;12.25;8.10;;;14.70;92.90;;;;;;5063581;28;20449;-84
2021/06/22 06:20:16;;;;;;;16.35;8.90;;;14.60;92.90;;;;;;5054871;28;20025;-84
2021/06/22 06:22:43;;;;;;;17.63;9.02;;;14.60;92.90;;;;;;5047764;28;20119;-84
2021/06/22 06:25:12;;;;;;;15.68;8.30;;;14.80;93.10;;;;;;5053235;28;20037;-84
2021/06/22 06:30:10;;;;;;;12.07;8.07;;;14.80;92.70;;;;;;5047291;28;20030;-84
2021/06/22 06:32:36;;;;;;;11.98;8.40;;;14.90;92.30;;;;;;5072215;28;20027;-84
2021/06/22 06:35:02;;;;;;;19.00;9.02;;;14.90;92.30;;;;;;5053766;28;20496;-85
2021/06/22 06:37:28;;;;;;;15.82;8.23;;;14.90;92.00;;;;;;5055679;28;20124;-85
2021/06/22 06:39:53;;;;;;;15.27;7.47;;;15.00;92.00;;;;;;5052973;28;20467;-84
2021/06/22 06:42:19;;;;;;;16.02;9.48;;;15.00;92.10;;;;;;5051646;28;20033;-84
2021/06/22 06:44:44;;;;;;;11.85;7.95;;;15.10;92.20;;;;;;5047262;28;20025;-84
2021/06/22 06:47:10;;;;;;;12.30;8.32;;;15.20;92.00;;;;;;5049962;28;20032;-85
2021/06/22 06:49:35;;;;;;;11.77;8.20;;;15.20;92.00;;;;;;5050131;28;20396;-84
2021/06/22 06:52:05;;;;;;;10.38;7.50;;;15.30;92.00;;;;;;5051215;28;20033;-85
2021/06/22 06:54:30;;;;;;;17.00;8.93;;;15.40;91.70;;;;;;5047858;28;20028;-84
2021/06/22 06:56:57;;;;;;;15.20;8.75;;;15.40;91.70;;;;;;5042644;28;20413;-84
2021/06/22 06:59:22;;;;;;;13.75;8.23;;;15.40;91.50;;;;;;5052420;28;20029;-84
2021/06/22 07:01:48;;;;;;;18.27;10.07;;;15.50;91.20;;;;;;5047887;28;20037;-84
2021/06/22 07:04:14;;;;;;;17.50;9.73;;;15.50;90.20;;;;;;5045422;28;20087;-84
2021/06/22 07:06:40;;;;;;;13.45;8.77;;;15.50;90.20;;;;;;5069744;28;20063;-84
2021/06/22 07:09:06;;;;;;;13.52;8.45;;;15.60;90.20;;;;;;5046007;28;20028;-84
2021/06/22 07:11:32;;;;;;;14.25;8.70;;;15.70;90.20;;;;;;5046180;28;20498;-85
2021/06/22 07:13:57;;;;;;;15.82;8.70;;;15.90;90.20;;;;;;5048938;28;20385;-85
2021/06/22 07:16:24;;;;;;;11.55;8.88;;;16.10;88.90;;;;;;5053397;28;20401;-85
2021/06/22 07:18:50;;;;;;;14.32;9.93;;;16.10;88.00;;;;;;5051840;28;20033;-85
2021/06/22 07:21:17;;;;;;;15.82;9.23;;;16.20;87.10;;;;;;5048112;28;20032;-85
2021/06/22 07:23:43;;;;;;;12.02;8.85;;;16.40;87.40;;;;;;5060859;28;20032;-85
2021/06/22 07:26:08;;;;;;;15.75;9.25;;;16.40;85.80;;;;;;5045667;28;20112;-85
2021/06/22 07:28:34;;;;;;;13.43;9.40;;;16.50;84.40;;;;;;5048527;28;20033;-85
2021/06/22 07:31:02;;;;;;;13.27;8.40;;;16.50;84.90;;;;;;5066453;28;20036;-85
2021/06/22 07:33:28;;;;;;;11.90;8.00;;;16.70;84.40;;;;;;5050138;28;20028;-86
2021/06/22 07:35:53;;;;;;;12.07;8.57;;;16.80;84.30;;;;;;5052705;28;20381;-84
2021/06/22 07:38:19;;;;;;;10.05;8.20;;;16.90;82.50;;;;;;5048079;28;20397;-85
2021/06/22 07:40:45;;;;;;;12.52;8.63;;;17.00;82.70;;;;;;5049910;28;20032;-85
2021/06/22 07:43:10;;;;;;;13.52;8.73;;;17.00;82.10;;;;;;5051305;28;20149;-85
2021/06/22 07:45:36;;;;;;;11.60;8.48;;;17.00;81.90;;;;;;5052596;28;20025;-85
2021/06/22 07:48:02;;;;;;;10.25;8.20;;;17.00;82.00;;;;;;5049951;28;20053;-85
2021/06/22 07:50:28;;;;;;;13.10;8.85;;;17.10;81.20;;;;;;5051444;28;20065;-85
2021/06/22 07:52:53;;;;;;;15.20;10.02;;;17.10;80.80;;;;;;5048939;28;20053;-84
2021/06/22 07:55:19;;;;;;;12.88;8.23;;;17.10;80.10;;;;;;5050796;28;20488;-85
2021/06/22 07:57:48;;;;;;;15.35;8.65;;;17.20;79.60;;;;;;5046320;28;20080;-85
2021/06/22 08:02:56;;;;;;;11.25;8.52;;;17.40;79.10;;;;;;5052146;28;20033;-85
2021/06/22 08:05:21;;;;;;;13.85;8.98;;;17.50;78.90;;;;;;5048978;28;20036;-87
2021/06/22 08:07:47;;;;;;;12.15;8.65;;;17.60;77.40;;;;;;5067759;28;20420;-85
2021/06/22 08:10:13;;;;;;;13.38;8.65;;;17.60;77.40;;;;;;5057940;28;20477;-85
2021/06/22 08:12:38;;;;;;;12.55;8.63;;;17.60;75.40;;;;;;5055830;28;20078;-86
2021/06/22 08:15:05;;;;;;;16.42;9.15;;;17.60;75.40;;;;;;5050599;28;20053;-86
2021/06/22 08:17:30;;;;;;;15.23;8.55;;;17.50;75.80;;;;;;5056814;28;20439;-86
2021/06/22 08:19:56;;;;;;;12.85;9.43;;;17.50;76.10;;;;;;5063552;28;20021;-86
2021/06/22 08:22:22;;;;;;;17.20;11.00;;;17.50;76.30;;;;;;5044836;28;20036;-86
2021/06/22 08:24:48;;;;;;;13.15;9.80;;;17.60;75.30;;;;;;5047927;28;20067;-86
2021/06/22 08:27:13;;;;;;;13.55;10.20;;;17.50;75.00;;;;;;5062666;28;20067;-85
2021/06/22 08:29:39;;;;;;;13.40;8.32;;;17.40;73.90;;;;;;5051016;28;20064;-86
2021/06/22 08:32:05;;;;;;;15.43;9.30;;;17.30;74.00;;;;;;5053979;28;20091;-85
2021/06/22 08:34:30;;;;;;;13.23;9.98;;;17.30;74.30;;;;;;5049674;28;20453;-86
2021/06/22 08:36:56;;;;;;;14.05;9.65;;;17.20;75.00;;;;;;5051780;28;20033;-86
2021/06/22 08:39:21;;;;;;;15.40;10.23;;;17.40;75.80;;;;;;5049648;28;20029;-86
2021/06/22 08:41:49;;;;;;;15.70;10.52;;;17.50;75.40;;;;;;5049375;28;20025;-86
2021/06/22 08:44:19;;;;;;;14.43;10.07;;;17.60;74.90;;;;;;5043780;28;20028;-86
2021/06/22 08:46:45;;;;;;;12.18;8.80;;;17.70;74.50;;;;;;5053293;28;20017;-85
2021/06/22 08:49:13;;;;;;;15.00;9.75;;;17.80;73.40;;;;;;5052511;28;20036;-86
2021/06/22 08:51:40;;;;;;;15.35;9.80;;;17.70;72.40;;;;;;5057517;28;20021;-85
2021/06/22 08:54:06;;;;;;;16.00;10.07;;;17.60;72.40;;;;;;5039907;28;20037;-86
2021/06/22 08:56:32;;;;;;;13.75;9.88;;;17.60;72.90;;;;;;5052149;28;20032;-86
2021/06/22 08:58:57;;;;;;;13.10;9.40;;;17.60;73.30;;;;;;5047902;28;20500;-86
2021/06/22 09:01:23;;;;;;;16.80;10.48;;;17.70;73.60;;;;;;5055045;28;20087;-85
2021/06/22 09:03:48;;;;;;;14.90;10.63;;;17.80;73.00;;;;;;5055731;28;20673;-86
2021/06/22 09:06:14;;;;;;;13.88;11.02;;;18.00;72.10;;;;;;5069067;28;20013;-90
2021/06/22 09:08:50;;;;;;;13.30;9.50;;;18.10;72.10;;;;;;5054792;28;20052;-87
2021/06/22 09:11:16;;;;;;;14.73;9.73;;;18.10;71.50;;;;;;5062282;28;20025;-86
2021/06/22 09:13:44;;;;;;;10.80;9.35;;;18.20;71.60;;;;;;5053497;28;20037;-86
2021/06/22 09:16:13;;;;;;;13.00;9.25;;;18.20;71.00;;;;;;5069875;28;20099;-87
2021/06/22 09:18:42;;;;;;;16.13;9.82;;;18.20;71.50;;;;;;5053828;28;20072;-86
2021/06/22 09:21:28;;;;;;;14.18;9.32;;;18.40;70.60;;;;;;5055511;28;20017;-85
2021/06/22 09:23:56;;;;;;;14.98;9.60;;;18.40;70.50;;;;;;5042442;28;20041;-86
2021/06/22 09:26:30;;;;;;;20.33;10.73;;;18.40;69.90;;;;;;5057788;28;20025;-86
2021/06/22 09:29:14;;;;;;;13.38;9.43;;;18.40;69.60;;;;;;5054045;28;20032;-86
2021/06/22 09:31:51;;;;;;;12.70;9.10;;;18.40;69.90;;;;;;5052797;28;20032;-86
2021/06/22 09:34:19;;;;;;;13.25;9.35;;;18.40;69.30;;;;;;5052514;28;20526;-85
2021/06/22 09:36:55;;;;;;;12.57;9.30;;;18.50;69.50;;;;;;5052237;28;20075;-86
2021/06/22 09:39:22;;;;;;;12.18;8.73;;;18.70;67.80;;;;;;5045645;28;20024;-85
2021/06/22 09:41:48;;;;;;;15.77;9.93;;;18.90;67.10;;;;;;5050272;28;20402;-86
2021/06/22 09:44:16;;;;;;;11.40;9.07;;;19.00;66.40;;;;;;5056605;28;20060;-85
2021/06/22 09:46:46;;;;;;;13.93;8.75;;;19.20;66.60;;;;;;5045012;28;20070;-85
2021/06/22 09:49:15;;;;;;;14.43;9.77;;;19.30;66.70;;;;;;5056197;28;20021;-86
2021/06/22 09:51:51;;;;;;;14.00;9.85;;;19.50;66.10;;;;;;5054759;28;20104;-86
2021/06/22 09:54:28;;;;;;;12.68;9.27;;;19.60;65.80;;;;;;5054362;28;20489;-85
2021/06/22 09:57:15;;;;;;;14.32;8.93;;;19.90;65.70;;;;;;5064481;28;20036;-85
2021/06/22 09:59:57;;;;;;;13.15;9.30;;;20.10;65.00;;;;;;5048077;28;20043;-85
2021/06/22 10:02:25;;;;;;;12.85;9.10;;;20.20;64.60;;;;;;5071757;28;20025;-85
2021/06/22 10:04:56;;;;;;;11.82;8.52;;;20.00;63.90;;;;;;5066899;28;20443;-85
2021/06/22 10:07:23;;;;;;;10.93;8.88;;;19.80;64.70;;;;;;5047801;28;20392;-85
2021/06/22 10:09:54;;;;;;;9.20;6.85;;;19.90;65.90;;;;;;5049814;28;20271;-85
2021/06/22 10:12:22;;;;;;;12.23;8.77;;;20.10;66.20;;;;;;5050678;28;20095;-84
2021/06/22 10:14:51;;;;;;;13.60;9.43;;;20.20;65.20;;;;;;5050541;28;20072;-85
2021/06/22 10:17:19;;;;;;;10.73;7.43;;;20.30;63.60;;;;;;5050747;28;20704;-85
2021/06/22 10:19:51;;;;;;;15.90;8.77;;;20.50;63.50;;;;;;5054062;28;20021;-85
2021/06/22 10:22:18;;;;;;;12.82;8.73;;;20.40;62.80;;;;;;5053614;28;20028;-85
2021/06/22 10:24:46;;;;;;;14.00;9.38;;;20.30;62.30;;;;;;5061082;28;20099;-85
2021/06/22 10:27:19;;;;;;;11.07;8.38;;;19.90;62.20;;;;;;5052103;28;20017;-85
2021/06/22 10:29:47;;;;;;;11.40;9.05;;;19.70;62.70;;;;;;5050962;28;20083;-85
2021/06/22 10:32:14;;;;;;;11.75;9.25;;;19.60;62.50;;;;;;5052855;28;20477;-85
2021/06/22 10:34:47;;;;;;;12.20;8.07;;;19.60;62.00;;;;;;5053429;28;20060;-85
2021/06/22 10:37:17;;;;;;;12.77;8.82;;;19.60;63.40;;;;;;5052858;28;20041;-85
2021/06/22 10:39:53;;;;;;;11.15;8.50;;;19.60;62.80;;;;;;5054024;28;20120;-85
2021/06/22 10:42:19;;;;;;;11.88;8.02;;;19.60;63.20;;;;;;5053724;28;20051;-86
2021/06/22 10:44:59;;;;;;;10.23;7.90;;;19.50;62.30;;;;;;5059675;28;20108;-85
2021/06/22 10:47:33;;;;;;;11.95;7.03;;;19.60;63.60;;;;;;5054778;28;20024;-85
2021/06/22 10:50:00;;;;;;;10.05;7.68;;;19.80;63.70;;;;;;5052588;28;20164;-85
2021/06/22 10:53:05;;;;;;;10.02;6.93;;;19.90;62.30;;;;;;5047880;28;20022;-85
2021/06/22 10:55:36;;;;;;;10.93;7.30;;;19.90;60.90;;;;;;5053336;28;20550;-85
2021/06/22 11:00:49;;;;;;;11.25;7.55;;;19.70;61.30;;;;;;5053693;28;20127;-85
2021/06/22 11:03:28;;;;;;;9.35;7.05;;;19.70;61.40;;;;;;5053143;28;20412;-85
2021/06/22 11:06:18;;;;;;;7.68;6.47;;;19.70;59.50;;;;;;5054326;28;20082;-85
2021/06/22 11:08:44;;;;;;;8.55;5.60;;;19.60;59.30;;;;;;5053835;28;20416;-85
2021/06/22 11:11:09;;;;;;;7.05;5.93;;;19.50;59.60;;;;;;5052931;28;20029;-85
2021/06/22 11:13:41;;;;;;;12.27;8.25;;;19.70;60.00;;;;;;5050842;28;20053;-85
2021/06/22 11:16:19;;;;;;;9.90;6.97;;;19.90;59.30;;;;;;5064527;28;20051;-85
2021/06/22 11:18:56;;;;;;;11.55;6.68;;;19.90;58.80;;;;;;5066321;28;20047;-84
2021/06/22 11:21:23;;;;;;;10.10;6.45;;;19.90;59.80;;;;;;5094045;28;20483;-84
2021/06/22 11:24:18;;;;;;;9.75;5.43;;;20.10;58.70;;;;;;5054032;28;20568;-83
2021/06/22 11:26:43;;;;;;;12.82;6.30;;;20.20;59.00;;;;;;5054940;28;20078;-84
2021/06/22 11:29:21;;;;;;;9.60;6.55;;;20.40;58.40;;;;;;5057081;28;20033;-84
2021/06/22 11:31:50;;;;;;;11.70;6.30;;;20.20;57.00;;;;;;5073639;28;20392;-84
2021/06/22 11:34:18;;;;;;;11.65;6.40;;;20.00;57.90;;;;;;5073156;28;20027;-84
2021/06/22 11:36:51;;;;;;;7.90;5.43;;;19.90;58.60;;;;;;5052409;28;20025;-84
2021/06/22 11:39:37;;;;;;;9.93;6.07;;;20.10;60.20;;;;;;5059010;28;20032;-85
2021/06/22 11:42:12;;;;;;;9.50;5.45;;;20.50;58.60;;;;;;5070957;28;20541;-84
2021/06/22 11:44:45;;;;;;;9.85;4.15;;;20.50;56.80;;;;;;5071217;28;20074;-84
2021/06/22 11:47:30;;;;;;;6.00;4.22;;;20.50;55.80;;;;;;5043029;28;20025;-84
2021/06/22 11:50:15;;;;;;;8.38;4.10;;;20.60;56.40;;;;;;5045695;28;20021;-84
2021/06/22 11:52:43;;;;;;;8.77;4.85;;;20.70;57.50;;;;;;5073111;28;20082;-84
2021/06/22 11:55:16;;;;;;;11.50;6.00;;;20.80;55.70;;;;;;5069250;28;20032;-84
2021/06/22 11:57:49;;;;;;;9.23;4.95;;;20.80;55.40;;;;;;5047379;28;20037;-84
2021/06/22 12:00:24;;;;;;;9.27;5.68;;;20.80;55.20;;;;;;5061657;28;20024;-84
2021/06/22 12:02:54;;;;;;;8.15;4.93;;;20.90;54.70;;;;;;5061806;28;20115;-85
2021/06/22 12:05:21;;;;;;;8.25;6.28;;;21.00;54.60;;;;;;5063665;28;20124;-85
2021/06/22 12:08:04;;;;;;;8.55;6.20;;;20.80;54.40;;;;;;5065591;28;20502;-84
2021/06/22 12:10:43;;;;;;;9.82;6.55;;;20.60;54.50;;;;;;5045223;28;20051;-85
2021/06/22 12:13:10;;;;;;;6.35;5.05;;;20.50;55.30;;;;;;5049813;28;20036;-85
2021/06/22 12:15:41;;;;;;;10.30;5.57;;;20.50;55.10;;;;;;5048086;28;20036;-83
2021/06/22 12:18:08;;;;;;;10.15;5.38;;;20.60;54.70;;;;;;5048393;28;20045;-85
2021/06/22 12:20:36;;;;;;;9.38;6.13;;;20.50;54.80;;;;;;5053731;28;20020;-85
2021/06/22 12:23:12;;;;;;;10.32;5.85;;;20.60;55.20;;;;;;5048906;28;20533;-85
2021/06/22 12:25:40;;;;;;;9.07;5.68;;;20.70;55.00;;;;;;5048445;28;20025;-84
2021/06/22 12:28:07;;;;;;;7.07;6.20;;;20.80;55.40;;;;;;5070210;28;20054;-84
2021/06/22 12:30:53;;;;;;;13.90;7.72;;;20.90;54.70;;;;;;5046202;28;20025;-85
2021/06/22 12:33:23;;;;;;;10.73;6.63;;;21.00;55.10;;;;;;5049430;28;20044;-84
2021/06/22 12:35:52;;;;;;;8.40;5.55;;;21.10;55.20;;;;;;5051054;28;20381;-84
2021/06/22 12:38:19;;;;;;;7.75;4.95;;;21.10;54.50;;;;;;5067752;28;20089;-85
2021/06/22 12:40:54;;;;;;;5.45;4.93;;;21.20;54.60;;;;;;5072259;28;20025;-84
2021/06/22 12:43:20;;;;;;;8.90;4.90;;;21.20;53.70;;;;;;5064082;28;20511;-84
2021/06/22 12:45:58;;;;;;;8.60;5.00;;;21.20;53.00;;;;;;5070080;28;20024;-84
2021/06/22 12:48:25;;;;;;;5.03;4.53;;;21.20;53.20;;;;;;5049866;28;20025;-84
2021/06/22 12:50:52;;;;;;;7.00;4.95;;;21.20;52.80;;;;;;5052323;28;20029;-84